Pine Bluff, AR

08:19 PM CST am 25. Januar 2015 (GMT -0600)
Pine Bluff - Deerfield | Change Station
CLOSE
Current Station
Persönliche Wetterstationen
Location: Pine Bluff, AR
Höhe: 228 ft
Wetterstationen in der Umgebung
aktive Warnung: Lake Wind Advisory

Höhe 228 ft 34.15 °N, 92.01 °W | Updated 4 seconds ago

Overcast
Bedeckt
50.8 °F
gefühlte 50.8 °F
N
6.0
Wind Wechselnd Wind aus West-Nordwest
Gusts 18.0 mph

Heute
Max. -- | schwach -- °F
--% Regenrisiko
Gestern
Max. -- | schwach -- °F
Precip. -- inch
7:09 AM 5:30 PM
Erstes Viertel, 38% visible
Druck 29.96 inch
Sichtweite 10.0 Meilen
Wolken Bedeckt 5000 ft
Taupunkt 36 °F
Feuchtigkeit 57%
Regen 0.00 inch
Schneehöhe Nicht verfügbar..
UV 0 von 12
Pollen 5.10 von 12
Luftqualität Nicht verfügbar..
Flu Activity Nicht verfügbar..
METAR KPBF 260153Z AUTO 31015G25KT 10SM OVC050 10/00 A2996 RMK AO2 PK WND 29029/0101 SLP146 T01000000

More Conditions Fewer Conditions

Druck 29.96 inch
Sichtweite 10.0 Meilen
Wolken Bedeckt 5000 ft
Taupunkt 36 °F
Feuchtigkeit 57%
Regen 0.00 inch
Schneehöhe Nicht verfügbar..
UV 0 von 12
Pollen 5.10 von 12
Luftqualität Nicht verfügbar..
Flu Activity Nicht verfügbar..
METAR KPBF 260153Z AUTO 31015G25KT 10SM OVC050 10/00 A2996 RMK AO2 PK WND 29029/0101 SLP146 T01000000

More Conditions Fewer Conditions

10-Day Weather Forecast

Almanac

Astronomie

Jan. 25, 2015 Aufgang Untergang
Genaue Zeit
Bürgerliche Dämmerung
Nautische Dämmerung
Astronomische Dämmerung
Mond
Länge des sichtbaren Lichts
Tageslänge
Tomorrow will be .
, % of the Moon is Illuminated

Heutige Rekorde

State Highs State Lows

Community

WunderPhotos

Upload Photos

1,790,064 Fotos hochgeladen!

WunderBlogs® & News

Nearby

Luftqualität

  Luftqualität LQ Index Schadstoff
Not available.

Schneehöhe

Station Depth Höhe

Erdbebenaktivität

Stadt Distance Mag. Time & Date
Minimum magnitude displayed is 2.5.

küstennahe Wassertemperaturen

Ort Temperatur

Wetterstationen in der Umgebung